Lansdowne, Maryland
Current Conditions -  °F | °C
As of 1:54 AM on Friday 28 Nov 2014 (Local Time) from KBWI Reporting Station
Scattered Clouds Scattered Clouds  
Wind Chill: 26°   Ceiling: Unl
Heat Index: 34°   Visibility: 10mi
Dew Point: 22°   Wind: 10mph
Humidity: 61%   Direction: 300°WNW
Pressure: 30.17"   Gusts: NA
Location:  39.2187°N, 76.722°W
Report Text: KBWI 280654Z 30009KT 10SM FEW043 SCT090 01/M06 A3017 RMK AO2 SLP215 T00111056
Loading
Personal Weather Stations






























Interactive Weather Map New forecast layout! Learn more

10-Day Weather Forecast

Advertisements
Track Severe Weather on mobile